sensor_id;sensor_type;location;lat;lon;timestamp;temperature;humidity
1123;DHT22;548;48.778;9.252;2022-12-29T00:00:08;7.70;99.90
1123;DHT22;548;48.778;9.252;2022-12-29T00:02:35;7.60;99.90
1123;DHT22;548;48.778;9.252;2022-12-29T00:05:03;7.70;99.90
1123;DHT22;548;48.778;9.252;2022-12-29T00:07:30;7.70;99.90
1123;DHT22;548;48.778;9.252;2022-12-29T00:09:57;7.70;99.90
1123;DHT22;548;48.778;9.252;2022-12-29T00:12:23;7.70;99.90
1123;DHT22;548;48.778;9.252;2022-12-29T00:14:50;7.70;99.90
1123;DHT22;548;48.778;9.252;2022-12-29T00:17:34;7.70;99.90
1123;DHT22;548;48.778;9.252;2022-12-29T00:20:03;7.80;99.90
1123;DHT22;548;48.778;9.252;2022-12-29T00:22:48;7.80;99.90
1123;DHT22;548;48.778;9.252;2022-12-29T00:25:32;7.80;99.90
1123;DHT22;548;48.778;9.252;2022-12-29T00:28:16;7.90;99.90
1123;DHT22;548;48.778;9.252;2022-12-29T00:31:01;7.90;99.90
1123;DHT22;548;48.778;9.252;2022-12-29T00:33:56;7.90;99.90
1123;DHT22;548;48.778;9.252;2022-12-29T00:36:42;8.00;99.90
1123;DHT22;548;48.778;9.252;2022-12-29T00:39:12;8.00;99.90
1123;DHT22;548;48.778;9.252;2022-12-29T00:42:03;8.10;99.90
1123;DHT22;548;48.778;9.252;2022-12-29T00:44:47;8.10;99.90
1123;DHT22;548;48.778;9.252;2022-12-29T00:47:14;8.10;99.90
1123;DHT22;548;48.778;9.252;2022-12-29T00:49:41;8.20;99.90
1123;DHT22;548;48.778;9.252;2022-12-29T00:52:09;8.20;99.90
1123;DHT22;548;48.778;9.252;2022-12-29T00:54:37;8.30;99.90
1123;DHT22;548;48.778;9.252;2022-12-29T00:57:06;8.30;99.90
1123;DHT22;548;48.778;9.252;2022-12-29T00:59:34;8.30;99.90
1123;DHT22;548;48.778;9.252;2022-12-29T01:02:02;8.20;99.90
1123;DHT22;548;48.778;9.252;2022-12-29T01:04:29;8.10;99.90
1123;DHT22;548;48.778;9.252;2022-12-29T01:06:55;8.10;99.90
1123;DHT22;548;48.778;9.252;2022-12-29T01:09:23;8.00;99.90
1123;DHT22;548;48.778;9.252;2022-12-29T01:12:08;8.00;99.90
1123;DHT22;548;48.778;9.252;2022-12-29T01:14:36;7.90;99.90
1123;DHT22;548;48.778;9.252;2022-12-29T01:17:03;7.80;99.90
1123;DHT22;548;48.778;9.252;2022-12-29T01:19:30;7.80;99.90
1123;DHT22;548;48.778;9.252;2022-12-29T01:21:57;7.80;99.90
1123;DHT22;548;48.778;9.252;2022-12-29T01:24:25;7.90;99.90
1123;DHT22;548;48.778;9.252;2022-12-29T01:26:52;7.90;99.90
1123;DHT22;548;48.778;9.252;2022-12-29T01:29:19;8.00;99.90
1123;DHT22;548;48.778;9.252;2022-12-29T01:31:46;8.00;99.90
1123;DHT22;548;48.778;9.252;2022-12-29T01:34:14;8.00;99.90
1123;DHT22;548;48.778;9.252;2022-12-29T01:36:41;8.10;99.90
1123;DHT22;548;48.778;9.252;2022-12-29T01:39:08;8.10;99.90
1123;DHT22;548;48.778;9.252;2022-12-29T01:41:36;8.10;99.90
1123;DHT22;548;48.778;9.252;2022-12-29T01:44:02;8.20;99.90
1123;DHT22;548;48.778;9.252;2022-12-29T01:46:32;8.20;99.90
1123;DHT22;548;48.778;9.252;2022-12-29T01:49:05;8.20;99.90
1123;DHT22;548;48.778;9.252;2022-12-29T01:51:37;8.30;99.90
1123;DHT22;548;48.778;9.252;2022-12-29T01:54:07;8.20;99.90
1123;DHT22;548;48.778;9.252;2022-12-29T01:56:36;8.20;99.90
1123;DHT22;548;48.778;9.252;2022-12-29T01:59:05;8.10;99.90
1123;DHT22;548;48.778;9.252;2022-12-29T02:01:34;8.10;99.90
1123;DHT22;548;48.778;9.252;2022-12-29T02:04:01;8.20;99.90
1123;DHT22;548;48.778;9.252;2022-12-29T02:06:32;8.30;99.90
1123;DHT22;548;48.778;9.252;2022-12-29T02:09:00;8.40;99.90
1123;DHT22;548;48.778;9.252;2022-12-29T02:11:27;8.60;99.90
1123;DHT22;548;48.778;9.252;2022-12-29T02:13:56;8.60;99.90
1123;DHT22;548;48.778;9.252;2022-12-29T02:16:42;8.70;99.90
1123;DHT22;548;48.778;9.252;2022-12-29T02:22:27;8.80;99.90
1123;DHT22;548;48.778;9.252;2022-12-29T02:25:15;8.70;99.90
1123;DHT22;548;48.778;9.252;2022-12-29T02:28:12;8.80;99.90
1123;DHT22;548;48.778;9.252;2022-12-29T02:30:49;8.90;99.90
1123;DHT22;548;48.778;9.252;2022-12-29T02:33:34;8.80;99.90
1123;DHT22;548;48.778;9.252;2022-12-29T02:36:07;8.90;99.90
1123;DHT22;548;48.778;9.252;2022-12-29T02:38:48;9.00;99.90
1123;DHT22;548;48.778;9.252;2022-12-29T02:41:20;9.10;99.90
1123;DHT22;548;48.778;9.252;2022-12-29T02:43:50;9.20;99.90
1123;DHT22;548;48.778;9.252;2022-12-29T02:46:25;9.20;99.90
1123;DHT22;548;48.778;9.252;2022-12-29T02:48:59;9.20;99.90
1123;DHT22;548;48.778;9.252;2022-12-29T02:51:32;9.30;99.90
1123;DHT22;548;48.778;9.252;2022-12-29T02:54:01;9.40;99.90
1123;DHT22;548;48.778;9.252;2022-12-29T02:56:48;9.60;99.90
1123;DHT22;548;48.778;9.252;2022-12-29T02:59:14;9.60;99.90
1123;DHT22;548;48.778;9.252;2022-12-29T03:01:57;9.60;99.90
1123;DHT22;548;48.778;9.252;2022-12-29T03:07:40;9.70;99.90
1123;DHT22;548;48.778;9.252;2022-12-29T03:10:18;9.70;99.90
1123;DHT22;548;48.778;9.252;2022-12-29T03:12:50;9.70;99.90
1123;DHT22;548;48.778;9.252;2022-12-29T03:15:41;9.60;99.90
1123;DHT22;548;48.778;9.252;2022-12-29T03:18:36;9.50;99.90
1123;DHT22;548;48.778;9.252;2022-12-29T03:21:08;9.40;99.90
1123;DHT22;548;48.778;9.252;2022-12-29T03:23:38;9.40;99.90
1123;DHT22;548;48.778;9.252;2022-12-29T03:26:10;9.50;99.90
1123;DHT22;548;48.778;9.252;2022-12-29T03:28:40;9.50;99.90
1123;DHT22;548;48.778;9.252;2022-12-29T03:31:10;9.70;99.90
1123;DHT22;548;48.778;9.252;2022-12-29T03:33:39;9.80;99.90
1123;DHT22;548;48.778;9.252;2022-12-29T03:36:11;10.10;99.90
1123;DHT22;548;48.778;9.252;2022-12-29T03:38:44;10.30;99.90
1123;DHT22;548;48.778;9.252;2022-12-29T03:41:15;10.40;99.90
1123;DHT22;548;48.778;9.252;2022-12-29T03:43:43;10.40;99.90
1123;DHT22;548;48.778;9.252;2022-12-29T03:46:10;10.40;99.90
1123;DHT22;548;48.778;9.252;2022-12-29T03:48:36;10.60;99.90
1123;DHT22;548;48.778;9.252;2022-12-29T03:51:05;10.90;99.90
1123;DHT22;548;48.778;9.252;2022-12-29T03:53:31;11.00;99.90
1123;DHT22;548;48.778;9.252;2022-12-29T03:55:58;11.20;99.90
1123;DHT22;548;48.778;9.252;2022-12-29T03:58:25;11.50;99.90
1123;DHT22;548;48.778;9.252;2022-12-29T04:00:51;11.70;99.90
1123;DHT22;548;48.778;9.252;2022-12-29T04:03:19;11.70;99.90
1123;DHT22;548;48.778;9.252;2022-12-29T04:05:46;11.60;99.90
1123;DHT22;548;48.778;9.252;2022-12-29T04:08:14;11.60;99.90
1123;DHT22;548;48.778;9.252;2022-12-29T04:10:40;11.60;99.90
1123;DHT22;548;48.778;9.252;2022-12-29T04:13:07;11.60;99.90
1123;DHT22;548;48.778;9.252;2022-12-29T04:15:34;11.50;99.90
1123;DHT22;548;48.778;9.252;2022-12-29T04:18:00;11.60;99.90
1123;DHT22;548;48.778;9.252;2022-12-29T04:20:27;11.60;99.90
1123;DHT22;548;48.778;9.252;2022-12-29T04:23:11;11.50;99.90
1123;DHT22;548;48.778;9.252;2022-12-29T04:25:39;11.60;99.90
1123;DHT22;548;48.778;9.252;2022-12-29T04:28:06;11.60;99.90
1123;DHT22;548;48.778;9.252;2022-12-29T04:30:33;11.70;99.90
1123;DHT22;548;48.778;9.252;2022-12-29T04:33:00;11.70;99.90
1123;DHT22;548;48.778;9.252;2022-12-29T04:35:26;11.70;99.90
1123;DHT22;548;48.778;9.252;2022-12-29T04:37:53;11.70;99.90
1123;DHT22;548;48.778;9.252;2022-12-29T04:40:20;11.80;99.90
1123;DHT22;548;48.778;9.252;2022-12-29T04:42:48;11.80;99.90
1123;DHT22;548;48.778;9.252;2022-12-29T04:45:15;12.00;99.90
1123;DHT22;548;48.778;9.252;2022-12-29T04:47:42;12.00;99.90
1123;DHT22;548;48.778;9.252;2022-12-29T04:50:09;11.90;99.90
1123;DHT22;548;48.778;9.252;2022-12-29T04:52:36;11.90;99.90
1123;DHT22;548;48.778;9.252;2022-12-29T04:55:04;11.90;99.90
1123;DHT22;548;48.778;9.252;2022-12-29T04:57:31;11.90;99.90
1123;DHT22;548;48.778;9.252;2022-12-29T04:59:59;12.00;99.90
1123;DHT22;548;48.778;9.252;2022-12-29T05:02:26;12.00;99.90
1123;DHT22;548;48.778;9.252;2022-12-29T05:04:52;12.10;99.90
1123;DHT22;548;48.778;9.252;2022-12-29T05:07:19;12.10;99.90
1123;DHT22;548;48.778;9.252;2022-12-29T05:09:46;12.10;99.90
1123;DHT22;548;48.778;9.252;2022-12-29T05:12:12;12.10;99.90
1123;DHT22;548;48.778;9.252;2022-12-29T05:14:39;12.00;99.90
1123;DHT22;548;48.778;9.252;2022-12-29T05:17:07;11.90;99.90
1123;DHT22;548;48.778;9.252;2022-12-29T05:19:34;12.00;99.90
1123;DHT22;548;48.778;9.252;2022-12-29T05:22:01;11.90;99.90
1123;DHT22;548;48.778;9.252;2022-12-29T05:24:27;11.80;99.90
1123;DHT22;548;48.778;9.252;2022-12-29T05:26:54;11.80;99.90
1123;DHT22;548;48.778;9.252;2022-12-29T05:29:21;11.80;99.90
1123;DHT22;548;48.778;9.252;2022-12-29T05:31:47;11.80;99.90
1123;DHT22;548;48.778;9.252;2022-12-29T05:34:15;11.80;99.90
1123;DHT22;548;48.778;9.252;2022-12-29T05:36:42;11.80;99.90
1123;DHT22;548;48.778;9.252;2022-12-29T05:39:09;11.70;99.90
1123;DHT22;548;48.778;9.252;2022-12-29T05:41:36;11.70;99.90
1123;DHT22;548;48.778;9.252;2022-12-29T05:44:02;11.70;99.90
1123;DHT22;548;48.778;9.252;2022-12-29T05:46:29;11.70;99.90
1123;DHT22;548;48.778;9.252;2022-12-29T05:48:56;11.50;99.90
1123;DHT22;548;48.778;9.252;2022-12-29T05:51:24;11.50;99.90
1123;DHT22;548;48.778;9.252;2022-12-29T05:53:51;11.50;99.90
1123;DHT22;548;48.778;9.252;2022-12-29T05:56:17;11.40;99.90
1123;DHT22;548;48.778;9.252;2022-12-29T05:58:44;11.40;99.90
1123;DHT22;548;48.778;9.252;2022-12-29T06:01:11;11.30;99.90
1123;DHT22;548;48.778;9.252;2022-12-29T06:03:38;11.30;99.90
1123;DHT22;548;48.778;9.252;2022-12-29T06:06:05;11.20;99.90
1123;DHT22;548;48.778;9.252;2022-12-29T06:08:33;11.40;99.90
1123;DHT22;548;48.778;9.252;2022-12-29T06:11:00;11.30;99.90
1123;DHT22;548;48.778;9.252;2022-12-29T06:13:27;11.10;99.90
1123;DHT22;548;48.778;9.252;2022-12-29T06:15:54;11.00;99.90
1123;DHT22;548;48.778;9.252;2022-12-29T06:18:21;11.00;99.90
1123;DHT22;548;48.778;9.252;2022-12-29T06:20:47;11.10;99.90
1123;DHT22;548;48.778;9.252;2022-12-29T06:23:14;11.30;99.90
1123;DHT22;548;48.778;9.252;2022-12-29T06:25:43;11.50;99.90
1123;DHT22;548;48.778;9.252;2022-12-29T06:28:09;11.60;99.90
1123;DHT22;548;48.778;9.252;2022-12-29T06:30:37;11.50;99.90
1123;DHT22;548;48.778;9.252;2022-12-29T06:33:03;11.40;99.90
1123;DHT22;548;48.778;9.252;2022-12-29T06:35:30;11.20;99.90
1123;DHT22;548;48.778;9.252;2022-12-29T06:37:57;11.10;99.90
1123;DHT22;548;48.778;9.252;2022-12-29T06:40:23;11.10;99.90
1123;DHT22;548;48.778;9.252;2022-12-29T06:42:51;11.00;99.90
1123;DHT22;548;48.778;9.252;2022-12-29T06:45:18;11.00;99.90
1123;DHT22;548;48.778;9.252;2022-12-29T06:47:45;11.00;99.90
1123;DHT22;548;48.778;9.252;2022-12-29T06:50:11;11.00;99.90
1123;DHT22;548;48.778;9.252;2022-12-29T06:52:38;11.00;99.90
1123;DHT22;548;48.778;9.252;2022-12-29T06:55:06;10.90;99.90
1123;DHT22;548;48.778;9.252;2022-12-29T06:57:33;11.00;99.90
1123;DHT22;548;48.778;9.252;2022-12-29T07:00:01;11.10;99.90
1123;DHT22;548;48.778;9.252;2022-12-29T07:02:28;11.00;99.90
1123;DHT22;548;48.778;9.252;2022-12-29T07:04:54;11.10;99.90
1123;DHT22;548;48.778;9.252;2022-12-29T07:07:21;11.10;99.90
1123;DHT22;548;48.778;9.252;2022-12-29T07:09:48;11.10;99.90
1123;DHT22;548;48.778;9.252;2022-12-29T07:12:15;11.10;99.90
1123;DHT22;548;48.778;9.252;2022-12-29T07:14:41;11.00;99.90
1123;DHT22;548;48.778;9.252;2022-12-29T07:17:09;11.00;99.90
1123;DHT22;548;48.778;9.252;2022-12-29T07:19:36;10.90;99.90
1123;DHT22;548;48.778;9.252;2022-12-29T07:22:03;10.80;99.90
1123;DHT22;548;48.778;9.252;2022-12-29T07:24:29;10.80;99.90
1123;DHT22;548;48.778;9.252;2022-12-29T07:26:56;10.80;99.90
1123;DHT22;548;48.778;9.252;2022-12-29T07:29:23;10.80;99.90
1123;DHT22;548;48.778;9.252;2022-12-29T07:31:50;10.90;99.90
1123;DHT22;548;48.778;9.252;2022-12-29T07:34:18;10.90;99.90
1123;DHT22;548;48.778;9.252;2022-12-29T07:36:44;11.00;99.90
1123;DHT22;548;48.778;9.252;2022-12-29T07:39:11;11.10;99.90
1123;DHT22;548;48.778;9.252;2022-12-29T07:41:38;11.10;99.90
1123;DHT22;548;48.778;9.252;2022-12-29T07:46:31;11.20;99.90
1123;DHT22;548;48.778;9.252;2022-12-29T07:48:58;10.60;99.90
1123;DHT22;548;48.778;9.252;2022-12-29T07:51:26;11.30;99.90
1123;DHT22;548;48.778;9.252;2022-12-29T07:53:53;11.30;99.90
1123;DHT22;548;48.778;9.252;2022-12-29T07:56:20;11.40;99.90
1123;DHT22;548;48.778;9.252;2022-12-29T07:58:46;11.30;99.90
1123;DHT22;548;48.778;9.252;2022-12-29T08:01:13;11.40;99.90
1123;DHT22;548;48.778;9.252;2022-12-29T08:03:58;11.50;99.90
1123;DHT22;548;48.778;9.252;2022-12-29T08:06:26;11.60;99.90
1123;DHT22;548;48.778;9.252;2022-12-29T08:08:54;11.60;99.90
1123;DHT22;548;48.778;9.252;2022-12-29T08:11:21;11.70;99.90
1123;DHT22;548;48.778;9.252;2022-12-29T08:13:48;11.80;99.90
1123;DHT22;548;48.778;9.252;2022-12-29T08:16:15;12.00;99.90
1123;DHT22;548;48.778;9.252;2022-12-29T08:18:41;12.20;99.90
1123;DHT22;548;48.778;9.252;2022-12-29T08:21:08;12.40;99.90
1123;DHT22;548;48.778;9.252;2022-12-29T08:23:36;12.50;99.90
1123;DHT22;548;48.778;9.252;2022-12-29T08:26:05;12.60;99.90
1123;DHT22;548;48.778;9.252;2022-12-29T08:28:32;12.60;99.90
1123;DHT22;548;48.778;9.252;2022-12-29T08:31:00;12.60;99.90
1123;DHT22;548;48.778;9.252;2022-12-29T08:33:28;12.70;99.90
1123;DHT22;548;48.778;9.252;2022-12-29T08:35:59;12.70;99.90
1123;DHT22;548;48.778;9.252;2022-12-29T08:38:26;12.80;99.90
1123;DHT22;548;48.778;9.252;2022-12-29T08:40:55;12.90;99.90
1123;DHT22;548;48.778;9.252;2022-12-29T08:43:22;12.90;99.90
1123;DHT22;548;48.778;9.252;2022-12-29T08:45:49;13.00;99.90
1123;DHT22;548;48.778;9.252;2022-12-29T08:48:16;13.00;99.90
1123;DHT22;548;48.778;9.252;2022-12-29T08:50:45;12.90;99.90
1123;DHT22;548;48.778;9.252;2022-12-29T08:53:12;12.90;99.90
1123;DHT22;548;48.778;9.252;2022-12-29T08:55:39;13.00;99.90
1123;DHT22;548;48.778;9.252;2022-12-29T08:58:07;12.90;99.90
1123;DHT22;548;48.778;9.252;2022-12-29T09:00:33;13.00;99.90
1123;DHT22;548;48.778;9.252;2022-12-29T09:03:00;13.10;99.90
1123;DHT22;548;48.778;9.252;2022-12-29T09:05:27;13.20;99.90
1123;DHT22;548;48.778;9.252;2022-12-29T09:07:54;13.20;99.90
1123;DHT22;548;48.778;9.252;2022-12-29T09:10:21;13.20;99.90
1123;DHT22;548;48.778;9.252;2022-12-29T09:12:47;13.20;99.90
1123;DHT22;548;48.778;9.252;2022-12-29T09:15:15;13.30;99.90
1123;DHT22;548;48.778;9.252;2022-12-29T09:17:42;13.40;99.90
1123;DHT22;548;48.778;9.252;2022-12-29T09:20:10;13.60;99.90
1123;DHT22;548;48.778;9.252;2022-12-29T09:22:38;13.70;99.90
1123;DHT22;548;48.778;9.252;2022-12-29T09:25:05;13.80;99.90
1123;DHT22;548;48.778;9.252;2022-12-29T09:27:32;13.90;99.90
1123;DHT22;548;48.778;9.252;2022-12-29T09:29:59;13.90;99.90
1123;DHT22;548;48.778;9.252;2022-12-29T09:32:27;13.90;99.90
1123;DHT22;548;48.778;9.252;2022-12-29T09:34:53;14.00;99.90
1123;DHT22;548;48.778;9.252;2022-12-29T09:37:20;14.00;99.90
1123;DHT22;548;48.778;9.252;2022-12-29T09:39:47;14.10;99.90
1123;DHT22;548;48.778;9.252;2022-12-29T09:42:18;14.10;99.90
1123;DHT22;548;48.778;9.252;2022-12-29T09:44:56;14.10;99.90
1123;DHT22;548;48.778;9.252;2022-12-29T09:47:28;14.20;99.90
1123;DHT22;548;48.778;9.252;2022-12-29T09:50:00;14.20;99.90
1123;DHT22;548;48.778;9.252;2022-12-29T09:52:31;14.30;99.90
1123;DHT22;548;48.778;9.252;2022-12-29T09:55:01;14.30;99.90
1123;DHT22;548;48.778;9.252;2022-12-29T09:57:33;14.70;99.90
1123;DHT22;548;48.778;9.252;2022-12-29T10:00:05;14.50;99.90
1123;DHT22;548;48.778;9.252;2022-12-29T10:02:41;14.70;99.90
1123;DHT22;548;48.778;9.252;2022-12-29T10:05:27;14.90;99.30
1123;DHT22;548;48.778;9.252;2022-12-29T10:08:06;15.00;99.20
1123;DHT22;548;48.778;9.252;2022-12-29T10:10:38;15.10;99.50
1123;DHT22;548;48.778;9.252;2022-12-29T10:13:20;15.00;99.10
1123;DHT22;548;48.778;9.252;2022-12-29T10:15:57;14.90;99.50
1123;DHT22;548;48.778;9.252;2022-12-29T10:21:27;14.60;99.90
1123;DHT22;548;48.778;9.252;2022-12-29T10:23:56;14.50;99.90
1123;DHT22;548;48.778;9.252;2022-12-29T10:26:26;14.50;99.90
1123;DHT22;548;48.778;9.252;2022-12-29T10:28:57;14.70;99.90
1123;DHT22;548;48.778;9.252;2022-12-29T10:31:29;14.70;99.90
1123;DHT22;548;48.778;9.252;2022-12-29T10:34:03;14.70;99.90
1123;DHT22;548;48.778;9.252;2022-12-29T10:36:35;14.70;99.90
1123;DHT22;548;48.778;9.252;2022-12-29T10:39:10;14.70;99.90
1123;DHT22;548;48.778;9.252;2022-12-29T10:41:43;14.70;99.90
1123;DHT22;548;48.778;9.252;2022-12-29T10:44:16;14.70;99.90
1123;DHT22;548;48.778;9.252;2022-12-29T10:46:44;14.70;99.90
1123;DHT22;548;48.778;9.252;2022-12-29T10:49:17;14.80;99.90
1123;DHT22;548;48.778;9.252;2022-12-29T10:51:47;15.20;99.90
1123;DHT22;548;48.778;9.252;2022-12-29T10:54:21;15.70;99.90
1123;DHT22;548;48.778;9.252;2022-12-29T10:56:51;16.10;98.70
1123;DHT22;548;48.778;9.252;2022-12-29T10:59:21;16.60;98.40
1123;DHT22;548;48.778;9.252;2022-12-29T11:01:55;17.70;96.50
1123;DHT22;548;48.778;9.252;2022-12-29T11:04:34;18.40;94.20
1123;DHT22;548;48.778;9.252;2022-12-29T11:07:01;18.40;93.70
1123;DHT22;548;48.778;9.252;2022-12-29T11:09:32;18.60;93.50
1123;DHT22;548;48.778;9.252;2022-12-29T11:12:00;17.90;94.00
1123;DHT22;548;48.778;9.252;2022-12-29T11:14:28;17.40;95.40
1123;DHT22;548;48.778;9.252;2022-12-29T11:17:00;16.70;95.90
1123;DHT22;548;48.778;9.252;2022-12-29T11:19:30;16.30;96.90
1123;DHT22;548;48.778;9.252;2022-12-29T11:22:13;16.00;97.70
1123;DHT22;548;48.778;9.252;2022-12-29T11:24:44;15.90;97.70
1123;DHT22;548;48.778;9.252;2022-12-29T11:27:15;15.90;98.40
1123;DHT22;548;48.778;9.252;2022-12-29T11:29:43;15.80;98.30
1123;DHT22;548;48.778;9.252;2022-12-29T11:32:12;15.80;98.80
1123;DHT22;548;48.778;9.252;2022-12-29T11:34:40;15.80;98.20
1123;DHT22;548;48.778;9.252;2022-12-29T11:37:11;15.70;98.20
1123;DHT22;548;48.778;9.252;2022-12-29T11:39:41;15.70;98.60
1123;DHT22;548;48.778;9.252;2022-12-29T11:42:14;15.70;98.70
1123;DHT22;548;48.778;9.252;2022-12-29T11:44:44;15.80;98.70
1123;DHT22;548;48.778;9.252;2022-12-29T11:47:21;15.70;99.40
1123;DHT22;548;48.778;9.252;2022-12-29T11:49:50;15.40;99.90
1123;DHT22;548;48.778;9.252;2022-12-29T11:52:22;15.40;99.90
1123;DHT22;548;48.778;9.252;2022-12-29T11:54:50;15.00;99.90
1123;DHT22;548;48.778;9.252;2022-12-29T11:57:19;14.90;99.90
1123;DHT22;548;48.778;9.252;2022-12-29T11:59:50;15.10;99.90
1123;DHT22;548;48.778;9.252;2022-12-29T12:02:42;15.30;99.90
1123;DHT22;548;48.778;9.252;2022-12-29T12:05:18;15.10;99.90
1123;DHT22;548;48.778;9.252;2022-12-29T12:07:49;15.30;99.90
1123;DHT22;548;48.778;9.252;2022-12-29T12:10:28;15.20;99.90
1123;DHT22;548;48.778;9.252;2022-12-29T12:13:02;15.10;99.90
1123;DHT22;548;48.778;9.252;2022-12-29T12:15:34;14.70;99.90
1123;DHT22;548;48.778;9.252;2022-12-29T12:18:08;14.60;99.90
1123;DHT22;548;48.778;9.252;2022-12-29T12:20:44;14.70;99.90
1123;DHT22;548;48.778;9.252;2022-12-29T12:23:18;14.80;99.90
1123;DHT22;548;48.778;9.252;2022-12-29T12:25:54;14.90;99.90
1123;DHT22;548;48.778;9.252;2022-12-29T12:28:28;14.90;99.90
1123;DHT22;548;48.778;9.252;2022-12-29T12:31:00;15.20;99.90
1123;DHT22;548;48.778;9.252;2022-12-29T12:33:32;15.10;99.90
1123;DHT22;548;48.778;9.252;2022-12-29T12:36:14;15.10;99.90
1123;DHT22;548;48.778;9.252;2022-12-29T12:38:51;15.30;99.90
1123;DHT22;548;48.778;9.252;2022-12-29T12:41:26;15.30;99.90
1123;DHT22;548;48.778;9.252;2022-12-29T12:44:01;15.30;99.90
1123;DHT22;548;48.778;9.252;2022-12-29T12:46:47;15.10;99.90
1123;DHT22;548;48.778;9.252;2022-12-29T12:49:38;15.00;99.90
1123;DHT22;548;48.778;9.252;2022-12-29T12:52:17;15.00;99.90
1123;DHT22;548;48.778;9.252;2022-12-29T12:55:04;14.80;99.90
1123;DHT22;548;48.778;9.252;2022-12-29T12:57:44;14.60;99.90
1123;DHT22;548;48.778;9.252;2022-12-29T13:00:14;14.60;99.90
1123;DHT22;548;48.778;9.252;2022-12-29T13:02:53;14.60;99.90
1123;DHT22;548;48.778;9.252;2022-12-29T13:05:30;14.60;99.90
1123;DHT22;548;48.778;9.252;2022-12-29T13:08:26;14.50;99.90
1123;DHT22;548;48.778;9.252;2022-12-29T13:11:02;14.30;99.90
1123;DHT22;548;48.778;9.252;2022-12-29T13:13:47;14.30;99.90
1123;DHT22;548;48.778;9.252;2022-12-29T13:16:23;14.20;99.90
1123;DHT22;548;48.778;9.252;2022-12-29T13:18:58;14.10;99.90
1123;DHT22;548;48.778;9.252;2022-12-29T13:21:33;14.00;99.90
1123;DHT22;548;48.778;9.252;2022-12-29T13:24:12;13.90;99.90
1123;DHT22;548;48.778;9.252;2022-12-29T13:26:46;13.90;99.90
1123;DHT22;548;48.778;9.252;2022-12-29T13:29:18;14.10;99.90
1123;DHT22;548;48.778;9.252;2022-12-29T13:31:51;14.00;99.90
1123;DHT22;548;48.778;9.252;2022-12-29T13:34:32;14.00;99.90
1123;DHT22;548;48.778;9.252;2022-12-29T13:37:07;14.10;99.90
1123;DHT22;548;48.778;9.252;2022-12-29T13:39:38;14.10;99.90
1123;DHT22;548;48.778;9.252;2022-12-29T13:42:06;14.20;99.90
1123;DHT22;548;48.778;9.252;2022-12-29T13:44:35;14.20;99.90
1123;DHT22;548;48.778;9.252;2022-12-29T13:47:10;14.10;99.90
1123;DHT22;548;48.778;9.252;2022-12-29T13:49:41;14.20;99.90
1123;DHT22;548;48.778;9.252;2022-12-29T13:52:13;14.20;99.90
1123;DHT22;548;48.778;9.252;2022-12-29T13:54:55;14.20;99.90
1123;DHT22;548;48.778;9.252;2022-12-29T13:57:39;14.20;99.90
1123;DHT22;548;48.778;9.252;2022-12-29T14:00:14;14.20;99.90
1123;DHT22;548;48.778;9.252;2022-12-29T14:02:53;14.30;99.90
1123;DHT22;548;48.778;9.252;2022-12-29T14:05:30;14.30;99.90
1123;DHT22;548;48.778;9.252;2022-12-29T14:07:58;14.40;99.90
1123;DHT22;548;48.778;9.252;2022-12-29T14:10:32;14.20;99.90
1123;DHT22;548;48.778;9.252;2022-12-29T14:13:04;14.30;99.90
1123;DHT22;548;48.778;9.252;2022-12-29T14:15:31;14.40;99.90
1123;DHT22;548;48.778;9.252;2022-12-29T14:18:17;14.40;99.90
1123;DHT22;548;48.778;9.252;2022-12-29T14:20:52;14.40;99.90
1123;DHT22;548;48.778;9.252;2022-12-29T14:23:44;14.20;99.90
1123;DHT22;548;48.778;9.252;2022-12-29T14:26:15;14.20;99.90
1123;DHT22;548;48.778;9.252;2022-12-29T14:28:44;14.30;99.90
1123;DHT22;548;48.778;9.252;2022-12-29T14:31:33;14.10;99.90
1123;DHT22;548;48.778;9.252;2022-12-29T14:37:03;13.90;99.90
1123;DHT22;548;48.778;9.252;2022-12-29T14:39:36;13.90;99.90
1123;DHT22;548;48.778;9.252;2022-12-29T14:42:06;14.00;99.90
1123;DHT22;548;48.778;9.252;2022-12-29T14:44:46;14.00;99.90
1123;DHT22;548;48.778;9.252;2022-12-29T14:47:18;13.80;99.90
1123;DHT22;548;48.778;9.252;2022-12-29T14:49:46;13.60;99.90
1123;DHT22;548;48.778;9.252;2022-12-29T14:52:17;13.50;99.90
1123;DHT22;548;48.778;9.252;2022-12-29T14:54:47;13.50;99.90
1123;DHT22;548;48.778;9.252;2022-12-29T14:57:37;13.50;99.90
1123;DHT22;548;48.778;9.252;2022-12-29T15:00:13;13.50;99.90
1123;DHT22;548;48.778;9.252;2022-12-29T15:02:45;13.50;99.90
1123;DHT22;548;48.778;9.252;2022-12-29T15:05:24;13.50;99.90
1123;DHT22;548;48.778;9.252;2022-12-29T15:07:54;13.40;99.90
1123;DHT22;548;48.778;9.252;2022-12-29T15:10:23;13.30;99.90
1123;DHT22;548;48.778;9.252;2022-12-29T15:12:54;13.20;99.90
1123;DHT22;548;48.778;9.252;2022-12-29T15:15:22;13.20;99.90
1123;DHT22;548;48.778;9.252;2022-12-29T15:17:50;13.20;99.90
1123;DHT22;548;48.778;9.252;2022-12-29T15:20:27;13.20;99.90
1123;DHT22;548;48.778;9.252;2022-12-29T15:22:56;13.10;99.90
1123;DHT22;548;48.778;9.252;2022-12-29T15:25:24;13.00;99.90
1123;DHT22;548;48.778;9.252;2022-12-29T15:27:55;12.90;99.90
1123;DHT22;548;48.778;9.252;2022-12-29T15:30:22;13.00;99.90
1123;DHT22;548;48.778;9.252;2022-12-29T15:32:49;13.00;99.90
1123;DHT22;548;48.778;9.252;2022-12-29T15:35:30;12.90;99.90
1123;DHT22;548;48.778;9.252;2022-12-29T15:37:58;13.00;99.90
1123;DHT22;548;48.778;9.252;2022-12-29T15:40:27;13.10;99.90
1123;DHT22;548;48.778;9.252;2022-12-29T15:43:12;13.10;99.90
1123;DHT22;548;48.778;9.252;2022-12-29T15:45:41;13.10;99.90
1123;DHT22;548;48.778;9.252;2022-12-29T15:48:15;13.10;99.90
1123;DHT22;548;48.778;9.252;2022-12-29T15:50:42;13.20;99.90
1123;DHT22;548;48.778;9.252;2022-12-29T15:53:11;13.20;99.90
1123;DHT22;548;48.778;9.252;2022-12-29T15:55:40;13.20;99.90
1123;DHT22;548;48.778;9.252;2022-12-29T15:58:20;13.30;99.90
1123;DHT22;548;48.778;9.252;2022-12-29T16:00:49;13.40;99.90
1123;DHT22;548;48.778;9.252;2022-12-29T16:03:16;13.50;99.90
1123;DHT22;548;48.778;9.252;2022-12-29T16:05:50;13.50;99.90
1123;DHT22;548;48.778;9.252;2022-12-29T16:08:29;13.40;99.90
1123;DHT22;548;48.778;9.252;2022-12-29T16:10:58;13.10;99.90
1123;DHT22;548;48.778;9.252;2022-12-29T16:13:29;12.80;99.90
1123;DHT22;548;48.778;9.252;2022-12-29T16:16:00;12.60;99.90
1123;DHT22;548;48.778;9.252;2022-12-29T16:18:29;12.30;99.90
1123;DHT22;548;48.778;9.252;2022-12-29T16:20:56;12.10;99.90
1123;DHT22;548;48.778;9.252;2022-12-29T16:23:25;11.90;99.90
1123;DHT22;548;48.778;9.252;2022-12-29T16:25:54;11.80;99.90
1123;DHT22;548;48.778;9.252;2022-12-29T16:28:24;11.70;99.90
1123;DHT22;548;48.778;9.252;2022-12-29T16:31:02;11.60;99.90
1123;DHT22;548;48.778;9.252;2022-12-29T16:33:36;11.60;99.90
1123;DHT22;548;48.778;9.252;2022-12-29T16:36:31;11.50;99.90
1123;DHT22;548;48.778;9.252;2022-12-29T16:39:15;11.50;99.90
1123;DHT22;548;48.778;9.252;2022-12-29T16:41:47;11.50;99.90
1123;DHT22;548;48.778;9.252;2022-12-29T16:44:17;11.50;99.90
1123;DHT22;548;48.778;9.252;2022-12-29T16:46:58;11.50;99.90
1123;DHT22;548;48.778;9.252;2022-12-29T16:49:26;11.50;99.90
1123;DHT22;548;48.778;9.252;2022-12-29T16:51:54;11.50;99.90
1123;DHT22;548;48.778;9.252;2022-12-29T16:54:23;11.50;99.90
1123;DHT22;548;48.778;9.252;2022-12-29T16:56:52;11.50;99.90
1123;DHT22;548;48.778;9.252;2022-12-29T16:59:29;11.40;99.90
1123;DHT22;548;48.778;9.252;2022-12-29T17:01:59;11.40;99.90